KMKC/MKC METAR and TAF weather

Enter ICAO airport designator
Station Type Date Time Source
KMKC METAR 2019/04/18 14:54 UTC NOAA

KMKC 181454Z 33012G23KT 10SM SCT026 12/05 A2985 RMK AO2 SLP103 T01170050 50027


Station Type Date Time Source
KMKC Decoded METAR 2019/04/18 14:54 UTC NOAA

KANSAS CITY DOWNTOWN AIRPORT , MO, United States (KMKC) 39-07N 094-36W 227M
Apr 18, 2019 - 10:54 AM EDT / 2019.04.18 1454 UTC
Wind: from the NNW (330 degrees) at 14 MPH (12 KT) gusting to 26 MPH (23 KT):0
Visibility: 10 mile(s):0
Sky conditions: partly cloudy
Temperature: 53.1 F (11.7 C)
Dew Point: 41.0 F (5.0 C)
Relative Humidity: 63%
Pressure (altimeter): 29.85 in. Hg (1010 hPa)
Pressure tendency: 0.08 inches (2.7 hPa) higher than three hours ago
ob: KMKC 181454Z 33012G23KT 10SM SCT026 12/05 A2985 RMK AO2 SLP103 T01170050 50027
cycle: 15

Station Type Date Time Source
KMKC TAF 2019/04/18 14:09 UTC NOAA

TAF
AMD KMKC 181406Z 1814/1912 34012G22KT P6SM BKN050
TEMPO 1814/1816 BKN025
FM190200 35010KT P6SM SCT100

Example: see airport list